createdAt,value
2022-11-05T00:00:30.989Z,1004.47
2022-11-05T00:01:31.101Z,1004.48
2022-11-05T00:02:30.941Z,1004.53
2022-11-05T00:03:31.010Z,1004.53
2022-11-05T00:04:31.302Z,1004.56
2022-11-05T00:05:30.917Z,1004.60
2022-11-05T00:06:30.931Z,1004.57
2022-11-05T00:07:30.895Z,1004.59
2022-11-05T00:08:30.893Z,1004.63
2022-11-05T00:09:30.865Z,1004.65
2022-11-05T00:10:30.864Z,1004.65
2022-11-05T00:11:30.864Z,1004.58
2022-11-05T00:12:30.841Z,1004.63
2022-11-05T00:13:30.836Z,1004.68
2022-11-05T00:14:30.820Z,1004.66
2022-11-05T00:15:30.805Z,1004.68
2022-11-05T00:16:30.786Z,1004.67
2022-11-05T00:17:30.816Z,1004.66
2022-11-05T00:18:30.775Z,1004.72
2022-11-05T00:19:30.754Z,1004.71
2022-11-05T00:20:30.744Z,1004.70
2022-11-05T00:21:30.739Z,1004.72
2022-11-05T00:22:30.741Z,1004.71
2022-11-05T00:23:30.719Z,1004.73
2022-11-05T00:24:30.715Z,1004.76
2022-11-05T00:25:30.765Z,1004.73
2022-11-05T00:26:30.772Z,1004.73
2022-11-05T00:27:30.745Z,1004.79
2022-11-05T00:28:30.661Z,1004.80
2022-11-05T00:29:30.659Z,1004.76
2022-11-05T00:30:30.650Z,1004.76
2022-11-05T00:31:30.662Z,1004.79
2022-11-05T00:32:30.615Z,1004.77
2022-11-05T00:33:30.631Z,1004.79
2022-11-05T00:34:30.591Z,1004.77
2022-11-05T00:35:30.595Z,1004.84
2022-11-05T00:36:30.586Z,1004.79
2022-11-05T00:37:30.558Z,1004.81
2022-11-05T00:38:30.564Z,1004.80
2022-11-05T00:39:30.554Z,1004.83
2022-11-05T00:40:30.544Z,1004.78
2022-11-05T00:41:30.528Z,1004.79
2022-11-05T00:42:30.527Z,1004.83
2022-11-05T00:43:30.519Z,1004.83
2022-11-05T00:44:30.500Z,1004.83
2022-11-05T00:45:30.471Z,1004.80
2022-11-05T00:46:30.454Z,1004.85
2022-11-05T00:47:30.457Z,1004.86
2022-11-05T00:48:30.438Z,1004.85
2022-11-05T00:49:30.426Z,1004.93
2022-11-05T00:50:30.444Z,1004.87
2022-11-05T00:51:30.407Z,1004.88
2022-11-05T00:52:30.392Z,1004.91
2022-11-05T00:53:30.390Z,1004.90
2022-11-05T00:54:30.392Z,1004.95
2022-11-05T00:55:30.355Z,1004.95
2022-11-05T00:56:30.371Z,1004.96
2022-11-05T00:57:30.344Z,1004.96
2022-11-05T00:58:30.338Z,1004.99
2022-11-05T00:59:30.326Z,1005.01
2022-11-05T01:00:30.328Z,1005.00
2022-11-05T01:01:30.535Z,1005.01
2022-11-05T01:02:30.470Z,1005.01
2022-11-05T01:03:30.277Z,1005.02
2022-11-05T01:04:30.270Z,1005.02
2022-11-05T01:05:30.278Z,1004.99
2022-11-05T01:06:30.243Z,1005.02
2022-11-05T01:07:30.244Z,1005.01
2022-11-05T01:08:30.227Z,1005.04
2022-11-05T01:09:30.214Z,1005.09
2022-11-05T01:10:30.210Z,1005.08
2022-11-05T01:11:30.213Z,1005.13
2022-11-05T01:12:30.189Z,1005.14
2022-11-05T01:13:30.172Z,1005.17
2022-11-05T01:14:30.149Z,1005.17
2022-11-05T01:15:30.149Z,1005.19
2022-11-05T01:16:30.145Z,1005.21
2022-11-05T01:17:30.142Z,1005.19
2022-11-05T01:18:30.108Z,1005.17
2022-11-05T01:19:30.105Z,1005.17
2022-11-05T01:20:30.086Z,1005.21
2022-11-05T01:21:30.081Z,1005.21
2022-11-05T01:22:30.074Z,1005.19
2022-11-05T01:23:30.060Z,1005.21
2022-11-05T01:24:30.045Z,1005.20
2022-11-05T01:25:30.037Z,1005.16
2022-11-05T01:26:30.041Z,1005.20
2022-11-05T01:27:30.025Z,1005.21
2022-11-05T01:28:30.107Z,1005.22
2022-11-05T01:29:29.993Z,1005.20
2022-11-05T01:30:29.970Z,1005.18
2022-11-05T01:31:29.958Z,1005.18
2022-11-05T01:32:29.952Z,1005.22
2022-11-05T01:33:29.962Z,1005.24
2022-11-05T01:34:29.929Z,1005.18
2022-11-05T01:35:29.925Z,1005.22
2022-11-05T01:36:29.910Z,1005.24
2022-11-05T01:37:29.891Z,1005.27
2022-11-05T01:38:29.918Z,1005.28
2022-11-05T01:39:29.885Z,1005.28
2022-11-05T01:40:29.887Z,1005.28
2022-11-05T01:41:29.869Z,1005.30
2022-11-05T01:42:29.842Z,1005.29
2022-11-05T01:43:29.946Z,1005.35
2022-11-05T01:44:29.838Z,1005.35
2022-11-05T01:45:29.818Z,1005.37
2022-11-05T01:46:29.801Z,1005.34
2022-11-05T01:47:29.816Z,1005.32
2022-11-05T01:48:29.779Z,1005.31
2022-11-05T01:49:29.794Z,1005.31
2022-11-05T01:50:29.761Z,1005.30
2022-11-05T01:51:29.775Z,1005.28
2022-11-05T01:52:29.734Z,1005.30
2022-11-05T01:53:29.725Z,1005.31
2022-11-05T01:54:29.755Z,1005.29
2022-11-05T01:55:29.715Z,1005.32
2022-11-05T01:56:29.696Z,1005.32
2022-11-05T01:57:29.682Z,1005.35
2022-11-05T01:58:29.671Z,1005.32
2022-11-05T01:59:29.661Z,1005.37
2022-11-05T02:00:29.660Z,1005.41
2022-11-05T02:01:29.837Z,1005.36
2022-11-05T02:02:29.761Z,1005.41
2022-11-05T02:03:29.616Z,1005.47
2022-11-05T02:04:29.602Z,1005.49
2022-11-05T02:05:29.587Z,1005.51
2022-11-05T02:06:29.584Z,1005.46
2022-11-05T02:07:29.589Z,1005.51
2022-11-05T02:08:29.557Z,1005.53
2022-11-05T02:09:29.562Z,1005.53
2022-11-05T02:10:29.531Z,1005.58
2022-11-05T02:11:29.522Z,1005.60
2022-11-05T02:12:29.524Z,1005.53
2022-11-05T02:13:29.511Z,1005.55
2022-11-05T02:14:29.508Z,1005.58
2022-11-05T02:15:29.480Z,1005.61
2022-11-05T02:16:29.502Z,1005.57
2022-11-05T02:17:29.464Z,1005.63
2022-11-05T02:18:29.451Z,1005.63
2022-11-05T02:19:29.433Z,1005.69
2022-11-05T02:20:29.434Z,1005.66
2022-11-05T02:21:29.418Z,1005.73
2022-11-05T02:22:29.426Z,1005.74
2022-11-05T02:23:29.400Z,1005.74
2022-11-05T02:24:29.385Z,1005.77
2022-11-05T02:25:29.369Z,1005.80
2022-11-05T02:26:29.366Z,1005.75
2022-11-05T02:27:29.348Z,1005.76
2022-11-05T02:28:29.347Z,1005.75
2022-11-05T02:29:29.341Z,1005.80
2022-11-05T02:30:29.315Z,1005.75
2022-11-05T02:31:29.299Z,1005.74
2022-11-05T02:32:29.394Z,1005.74
2022-11-05T02:33:29.307Z,1005.78
2022-11-05T02:34:29.288Z,1005.80
2022-11-05T02:35:29.257Z,1005.81
2022-11-05T02:36:29.249Z,1005.81
2022-11-05T02:37:29.227Z,1005.84
2022-11-05T02:38:29.232Z,1005.85
2022-11-05T02:39:29.230Z,1005.84
2022-11-05T02:40:29.222Z,1005.85
2022-11-05T02:41:29.186Z,1005.86
2022-11-05T02:42:29.169Z,1005.87
2022-11-05T02:43:29.176Z,1005.91
2022-11-05T02:44:29.158Z,1005.88
2022-11-05T02:45:29.146Z,1005.86
2022-11-05T02:46:29.213Z,1005.89
2022-11-05T02:47:29.124Z,1005.89
2022-11-05T02:48:29.132Z,1005.95
2022-11-05T02:49:29.108Z,1005.94
2022-11-05T02:50:29.212Z,1005.94
2022-11-05T02:51:29.193Z,1005.93
2022-11-05T02:52:29.068Z,1005.93
2022-11-05T02:53:29.063Z,1005.97
2022-11-05T02:54:29.055Z,1005.99
2022-11-05T02:55:29.061Z,1005.96
2022-11-05T02:56:29.041Z,1006.01
2022-11-05T02:57:29.027Z,1006.00
2022-11-05T02:58:29.014Z,1005.98
2022-11-05T02:59:28.992Z,1005.96
2022-11-05T03:00:28.983Z,1006.00
2022-11-05T03:01:29.074Z,1006.05
2022-11-05T03:02:29.144Z,1006.06
2022-11-05T03:03:28.946Z,1006.04
2022-11-05T03:04:28.973Z,1006.07
2022-11-05T03:05:28.927Z,1006.07
2022-11-05T03:06:28.979Z,1006.08
2022-11-05T03:07:28.932Z,1006.12
2022-11-05T03:08:28.921Z,1006.11
2022-11-05T03:09:28.911Z,1006.18
2022-11-05T03:10:28.879Z,1006.16
2022-11-05T03:11:28.869Z,1006.11
2022-11-05T03:12:28.872Z,1006.12
2022-11-05T03:13:28.847Z,1006.18
2022-11-05T03:14:28.851Z,1006.15
2022-11-05T03:15:28.816Z,1006.14
2022-11-05T03:16:28.808Z,1006.15
2022-11-05T03:17:28.788Z,1006.18
2022-11-05T03:18:28.795Z,1006.20
2022-11-05T03:19:28.812Z,1006.23
2022-11-05T03:20:28.805Z,1006.20
2022-11-05T03:21:28.753Z,1006.26
2022-11-05T03:22:29.680Z,1006.33
2022-11-05T03:23:28.759Z,1006.32
2022-11-05T03:24:28.723Z,1006.33
2022-11-05T03:25:28.706Z,1006.36
2022-11-05T03:26:28.709Z,1006.33
2022-11-05T03:27:28.693Z,1006.35
2022-11-05T03:28:28.667Z,1006.31
2022-11-05T03:29:28.660Z,1006.35
2022-11-05T03:30:28.666Z,1006.39
2022-11-05T03:31:28.661Z,1006.38
2022-11-05T03:32:28.619Z,1006.39
2022-11-05T03:33:28.610Z,1006.44
2022-11-05T03:34:28.600Z,1006.45
2022-11-05T03:35:28.599Z,1006.43
2022-11-05T03:36:28.616Z,1006.42
2022-11-05T03:37:28.577Z,1006.51
2022-11-05T03:38:28.561Z,1006.50
2022-11-05T03:39:28.546Z,1006.53
2022-11-05T03:40:28.541Z,1006.54
2022-11-05T03:41:28.534Z,1006.52
2022-11-05T03:42:28.524Z,1006.56
2022-11-05T03:43:28.502Z,1006.56
2022-11-05T03:44:28.489Z,1006.56
2022-11-05T03:45:28.478Z,1006.58
2022-11-05T03:46:28.479Z,1006.58
2022-11-05T03:47:28.463Z,1006.55
2022-11-05T03:48:28.522Z,1006.64
2022-11-05T03:49:28.452Z,1006.57
2022-11-05T03:50:28.425Z,1006.64
2022-11-05T03:51:28.419Z,1006.65
2022-11-05T03:52:28.550Z,1006.65
2022-11-05T03:53:28.393Z,1006.64
2022-11-05T03:54:28.384Z,1006.66
2022-11-05T03:55:28.368Z,1006.62
2022-11-05T03:56:28.371Z,1006.63
2022-11-05T03:57:28.352Z,1006.68
2022-11-05T03:58:28.367Z,1006.73
2022-11-05T03:59:28.334Z,1006.74
2022-11-05T04:00:28.321Z,1006.74
2022-11-05T04:01:28.447Z,1006.73
2022-11-05T04:02:28.512Z,1006.72
2022-11-05T04:03:28.290Z,1006.71
2022-11-05T04:04:28.294Z,1006.75
2022-11-05T04:05:28.264Z,1006.75
2022-11-05T04:06:28.249Z,1006.79
2022-11-05T04:07:28.250Z,1006.80
2022-11-05T04:08:28.266Z,1006.79
2022-11-05T04:09:28.217Z,1006.84
2022-11-05T04:10:28.210Z,1006.86
2022-11-05T04:11:28.196Z,1006.88
2022-11-05T04:12:28.178Z,1006.91
2022-11-05T04:13:28.179Z,1006.93
2022-11-05T04:14:28.170Z,1006.97
2022-11-05T04:15:28.162Z,1006.97
2022-11-05T04:16:28.137Z,1006.96
2022-11-05T04:17:28.131Z,1007.03
2022-11-05T04:18:28.150Z,1007.05
2022-11-05T04:19:28.100Z,1007.07
2022-11-05T04:20:28.119Z,1007.04
2022-11-05T04:21:28.083Z,1007.02
2022-11-05T04:22:28.074Z,1007.03
2022-11-05T04:23:28.058Z,1007.01
2022-11-05T04:24:28.078Z,1007.04
2022-11-05T04:25:28.050Z,1006.99
2022-11-05T04:26:28.036Z,1007.01
2022-11-05T04:27:28.016Z,1007.07
2022-11-05T04:28:28.003Z,1007.04
2022-11-05T04:29:28.032Z,1007.03
2022-11-05T04:30:27.992Z,1007.07
2022-11-05T04:31:27.978Z,1007.07
2022-11-05T04:32:27.968Z,1007.12
2022-11-05T04:33:27.957Z,1007.14
2022-11-05T04:34:27.939Z,1007.11
2022-11-05T04:35:27.944Z,1007.16
2022-11-05T04:36:27.927Z,1007.16
2022-11-05T04:37:27.906Z,1007.18
2022-11-05T04:38:27.903Z,1007.23
2022-11-05T04:39:27.889Z,1007.19
2022-11-05T04:40:27.906Z,1007.25
2022-11-05T04:41:27.863Z,1007.20
2022-11-05T04:42:27.861Z,1007.27
2022-11-05T04:43:27.847Z,1007.27
2022-11-05T04:44:27.831Z,1007.22
2022-11-05T04:45:27.837Z,1007.26
2022-11-05T04:46:27.812Z,1007.24
2022-11-05T04:47:27.791Z,1007.30
2022-11-05T04:48:27.791Z,1007.28
2022-11-05T04:49:27.779Z,1007.22
2022-11-05T04:50:27.771Z,1007.21
2022-11-05T04:51:27.768Z,1007.22
2022-11-05T04:52:27.744Z,1007.21
2022-11-05T04:53:27.728Z,1007.29
2022-11-05T04:54:27.735Z,1007.24
2022-11-05T04:55:27.714Z,1007.29
2022-11-05T04:56:27.714Z,1007.26
2022-11-05T04:57:27.704Z,1007.27
2022-11-05T04:58:27.670Z,1007.30
2022-11-05T04:59:27.659Z,1007.25
2022-11-05T05:00:27.718Z,1007.26
2022-11-05T05:01:27.875Z,1007.24
2022-11-05T05:02:27.627Z,1007.30
2022-11-05T05:03:27.623Z,1007.27
2022-11-05T05:04:27.624Z,1007.28
2022-11-05T05:05:27.604Z,1007.33
2022-11-05T05:06:27.603Z,1007.31
2022-11-05T05:07:27.582Z,1007.29
2022-11-05T05:08:27.565Z,1007.25
2022-11-05T05:09:27.558Z,1007.28
2022-11-05T05:10:27.537Z,1007.28
2022-11-05T05:11:27.543Z,1007.27
2022-11-05T05:12:27.561Z,1007.27
2022-11-05T05:13:27.514Z,1007.26
2022-11-05T05:14:27.520Z,1007.24
2022-11-05T05:15:27.500Z,1007.25
2022-11-05T05:16:27.513Z,1007.23
2022-11-05T05:17:27.481Z,1007.25
2022-11-05T05:18:27.557Z,1007.21
2022-11-05T05:19:27.454Z,1007.23
2022-11-05T05:20:27.454Z,1007.22
2022-11-05T05:21:27.426Z,1007.21
2022-11-05T05:22:27.414Z,1007.28
2022-11-05T05:23:27.393Z,1007.24
2022-11-05T05:24:27.403Z,1007.30
2022-11-05T05:25:27.382Z,1007.34
2022-11-05T05:26:27.369Z,1007.38
2022-11-05T05:27:27.348Z,1007.38
2022-11-05T05:28:27.365Z,1007.41
2022-11-05T05:29:27.337Z,1007.42
2022-11-05T05:30:27.336Z,1007.47
2022-11-05T05:31:27.307Z,1007.48
2022-11-05T05:32:27.300Z,1007.43
2022-11-05T05:33:27.288Z,1007.46
2022-11-05T05:34:27.285Z,1007.45
2022-11-05T05:35:27.304Z,1007.49
2022-11-05T05:36:27.260Z,1007.53
2022-11-05T05:37:27.243Z,1007.50
2022-11-05T05:38:27.239Z,1007.59
2022-11-05T05:39:27.229Z,1007.63
2022-11-05T05:40:27.233Z,1007.61
2022-11-05T05:41:27.198Z,1007.65
2022-11-05T05:42:27.197Z,1007.62
2022-11-05T05:43:27.183Z,1007.72
2022-11-05T05:44:27.184Z,1007.72
2022-11-05T05:45:27.173Z,1007.75
2022-11-05T05:46:27.167Z,1007.74
2022-11-05T05:47:27.135Z,1007.75
2022-11-05T05:48:27.118Z,1007.74
2022-11-05T05:49:27.109Z,1007.72
2022-11-05T05:50:27.106Z,1007.77
2022-11-05T05:51:27.084Z,1007.73
2022-11-05T05:52:27.100Z,1007.76
2022-11-05T05:53:27.070Z,1007.77
2022-11-05T05:54:32.149Z,1007.79
2022-11-05T05:55:28.046Z,1007.80
2022-11-05T05:56:27.059Z,1007.75
2022-11-05T05:57:27.053Z,1007.81
2022-11-05T05:58:27.017Z,1007.80
2022-11-05T05:59:27.002Z,1007.84
2022-11-05T06:00:27.005Z,1007.80
2022-11-05T06:01:27.021Z,1007.90
2022-11-05T06:02:27.188Z,1007.92
2022-11-05T06:03:26.952Z,1007.93
2022-11-05T06:04:26.950Z,1007.96
2022-11-05T06:05:26.936Z,1008.03
2022-11-05T06:06:26.925Z,1008.01
2022-11-05T06:07:26.922Z,1008.04
2022-11-05T06:08:26.926Z,1008.09
2022-11-05T06:09:26.896Z,1008.05
2022-11-05T06:10:26.982Z,1008.10
2022-11-05T06:11:26.870Z,1008.11
2022-11-05T06:12:26.863Z,1008.08
2022-11-05T06:13:26.875Z,1008.10
2022-11-05T06:14:26.844Z,1008.08
2022-11-05T06:15:28.479Z,1008.13
2022-11-05T06:16:26.836Z,1008.13
2022-11-05T06:17:26.807Z,1008.16
2022-11-05T06:18:26.798Z,1008.24
2022-11-05T06:19:26.804Z,1008.27
2022-11-05T06:20:26.776Z,1008.25
2022-11-05T06:21:26.763Z,1008.30
2022-11-05T06:22:26.764Z,1008.28
2022-11-05T06:23:26.758Z,1008.26
2022-11-05T06:24:26.728Z,1008.29
2022-11-05T06:25:26.718Z,1008.30
2022-11-05T06:26:26.728Z,1008.33
2022-11-05T06:27:26.699Z,1008.34
2022-11-05T06:28:26.691Z,1008.36
2022-11-05T06:29:26.691Z,1008.41
2022-11-05T06:30:26.734Z,1008.37
2022-11-05T06:31:26.661Z,1008.47
2022-11-05T06:32:26.785Z,1008.48
2022-11-05T06:33:26.640Z,1008.48
2022-11-05T06:34:26.659Z,1008.53
2022-11-05T06:35:26.630Z,1008.55
2022-11-05T06:36:26.601Z,1008.58
2022-11-05T06:37:26.598Z,1008.58
2022-11-05T06:38:26.586Z,1008.61
2022-11-05T06:39:26.583Z,1008.63
2022-11-05T06:40:26.567Z,1008.63
2022-11-05T06:41:26.557Z,1008.65
2022-11-05T06:42:26.543Z,1008.72
2022-11-05T06:43:26.524Z,1008.71
2022-11-05T06:44:26.546Z,1008.69
2022-11-05T06:45:26.512Z,1008.72
2022-11-05T06:46:26.508Z,1008.70
2022-11-05T06:47:26.505Z,1008.71
2022-11-05T06:48:26.587Z,1008.73
2022-11-05T06:49:26.460Z,1008.72
2022-11-05T06:50:26.448Z,1008.74
2022-11-05T06:51:26.485Z,1008.69
2022-11-05T06:52:26.423Z,1008.66
2022-11-05T06:53:26.452Z,1008.75
2022-11-05T06:54:26.409Z,1008.80
2022-11-05T06:55:26.399Z,1008.80
2022-11-05T06:56:26.382Z,1008.78
2022-11-05T06:57:26.374Z,1008.84
2022-11-05T06:58:26.366Z,1008.83
2022-11-05T06:59:26.361Z,1008.86
2022-11-05T07:00:26.345Z,1008.87
2022-11-05T07:01:26.479Z,1008.85
2022-11-05T07:02:26.407Z,1008.87
2022-11-05T07:03:26.364Z,1008.89
2022-11-05T07:04:26.326Z,1008.91
2022-11-05T07:05:26.284Z,1008.89
2022-11-05T07:06:26.276Z,1008.92
2022-11-05T07:07:26.257Z,1008.93
2022-11-05T07:08:26.268Z,1008.92
2022-11-05T07:09:26.246Z,1008.97
2022-11-05T07:10:26.249Z,1009.00
2022-11-05T07:11:26.224Z,1008.96
2022-11-05T07:12:26.203Z,1009.02
2022-11-05T07:13:26.207Z,1009.02
2022-11-05T07:14:26.183Z,1009.04
2022-11-05T07:15:26.169Z,1009.03
2022-11-05T07:16:26.175Z,1009.08
2022-11-05T07:17:26.212Z,1009.06
2022-11-05T07:18:26.138Z,1009.07
2022-11-05T07:19:26.130Z,1009.07
2022-11-05T07:20:30.750Z,1009.07
2022-11-05T07:21:27.128Z,1009.11
2022-11-05T07:22:26.098Z,1009.14
2022-11-05T07:23:26.083Z,1009.13
2022-11-05T07:24:26.072Z,1009.14
2022-11-05T07:25:26.067Z,1009.18
2022-11-05T07:26:30.490Z,1009.19
2022-11-05T07:27:27.066Z,1009.22
2022-11-05T07:28:26.054Z,1009.26
2022-11-05T07:29:26.030Z,1009.28
2022-11-05T07:30:26.025Z,1009.31
2022-11-05T07:31:26.009Z,1009.32
2022-11-05T07:32:26.002Z,1009.30
2022-11-05T07:33:26.009Z,1009.31
2022-11-05T07:34:25.981Z,1009.35
2022-11-05T07:35:25.972Z,1009.31
2022-11-05T07:36:25.965Z,1009.38
2022-11-05T07:37:25.967Z,1009.37
2022-11-05T07:38:25.943Z,1009.37
2022-11-05T07:39:25.935Z,1009.33
2022-11-05T07:40:25.916Z,1009.34
2022-11-05T07:41:25.899Z,1009.34
2022-11-05T07:42:25.896Z,1009.32
2022-11-05T07:43:25.873Z,1009.34
2022-11-05T07:44:25.888Z,1009.24
2022-11-05T07:45:25.856Z,1009.24
2022-11-05T07:46:25.850Z,1009.27
2022-11-05T07:47:25.828Z,1009.25
2022-11-05T07:48:25.839Z,1009.22
2022-11-05T07:49:25.820Z,1009.25
2022-11-05T07:50:25.802Z,1009.22
2022-11-05T07:51:25.791Z,1009.25
2022-11-05T07:52:25.799Z,1009.25
2022-11-05T07:53:25.768Z,1009.20
2022-11-05T07:54:25.784Z,1009.24
2022-11-05T07:55:25.743Z,1009.26
2022-11-05T07:56:25.733Z,1009.26
2022-11-05T07:57:25.738Z,1009.31
2022-11-05T07:58:25.764Z,1009.30
2022-11-05T07:59:25.724Z,1009.31
2022-11-05T08:00:25.714Z,1009.35
2022-11-05T08:01:25.911Z,1009.34
2022-11-05T08:02:25.922Z,1009.35
2022-11-05T08:03:25.826Z,1009.40
2022-11-05T08:04:25.659Z,1009.36
2022-11-05T08:05:25.694Z,1009.35
2022-11-05T08:06:25.634Z,1009.41
2022-11-05T08:07:25.615Z,1009.44
2022-11-05T08:08:25.628Z,1009.39
2022-11-05T08:09:25.595Z,1009.44
2022-11-05T08:10:25.619Z,1009.43
2022-11-05T08:11:25.586Z,1009.46
2022-11-05T08:12:25.565Z,1009.47
2022-11-05T08:13:25.568Z,1009.52
2022-11-05T08:14:25.547Z,1009.52
2022-11-05T08:15:25.551Z,1009.49
2022-11-05T08:16:25.531Z,1009.55
2022-11-05T08:17:25.504Z,1009.57
2022-11-05T08:18:25.494Z,1009.56
2022-11-05T08:19:25.507Z,1009.56
2022-11-05T08:20:25.510Z,1009.57
2022-11-05T08:21:25.463Z,1009.65
2022-11-05T08:22:25.468Z,1009.63
2022-11-05T08:23:25.443Z,1009.62
2022-11-05T08:24:25.455Z,1009.66
2022-11-05T08:25:25.415Z,1009.63
2022-11-05T08:26:25.425Z,1009.62
2022-11-05T08:27:25.398Z,1009.68
2022-11-05T08:28:25.379Z,1009.66
2022-11-05T08:29:25.369Z,1009.71
2022-11-05T08:30:25.460Z,1009.74
2022-11-05T08:31:25.349Z,1009.74
2022-11-05T08:32:25.361Z,1009.75
2022-11-05T08:33:25.333Z,1009.75
2022-11-05T08:34:25.316Z,1009.82
2022-11-05T08:35:25.337Z,1009.78
2022-11-05T08:36:25.311Z,1009.81
2022-11-05T08:37:25.303Z,1009.84
2022-11-05T08:38:25.284Z,1009.82
2022-11-05T08:39:25.268Z,1009.82
2022-11-05T08:40:25.423Z,1009.86
2022-11-05T08:41:25.250Z,1009.85
2022-11-05T08:42:25.229Z,1009.89
2022-11-05T08:43:25.223Z,1009.90
2022-11-05T08:44:25.211Z,1009.91
2022-11-05T08:45:25.194Z,1009.89
2022-11-05T08:46:25.199Z,1009.92
2022-11-05T08:47:25.252Z,1009.91
2022-11-05T08:48:25.168Z,1009.87
2022-11-05T08:49:25.165Z,1009.90
2022-11-05T08:50:25.245Z,1009.96
2022-11-05T08:51:25.122Z,1009.92
2022-11-05T08:52:25.125Z,1009.92
2022-11-05T08:53:25.113Z,1009.83
2022-11-05T08:54:25.100Z,1009.83
2022-11-05T08:55:25.116Z,1009.82
2022-11-05T08:56:25.093Z,1009.86
2022-11-05T08:57:25.063Z,1009.86
2022-11-05T08:58:25.062Z,1009.93
2022-11-05T08:59:25.041Z,1009.94
2022-11-05T09:00:25.059Z,1009.98
2022-11-05T09:01:25.174Z,1009.97
2022-11-05T09:02:25.164Z,1009.94
2022-11-05T09:03:25.000Z,1009.97
2022-11-05T09:04:24.998Z,1009.99
2022-11-05T09:05:24.973Z,1009.89
2022-11-05T09:06:24.984Z,1009.97
2022-11-05T09:07:24.948Z,1009.95
2022-11-05T09:08:24.943Z,1009.99
2022-11-05T09:09:24.949Z,1009.98
2022-11-05T09:10:24.924Z,1009.99
2022-11-05T09:11:42.988Z,1010.09
2022-11-05T09:12:25.907Z,1010.09
2022-11-05T09:13:25.230Z,1010.14
2022-11-05T09:14:24.880Z,1010.10
2022-11-05T09:15:24.870Z,1010.10
2022-11-05T09:16:24.853Z,1010.15
2022-11-05T09:17:24.865Z,1010.20
2022-11-05T09:18:24.833Z,1010.23
2022-11-05T09:19:24.816Z,1010.20
2022-11-05T09:20:24.854Z,1010.25
2022-11-05T09:21:24.799Z,1010.22
2022-11-05T09:22:24.799Z,1010.20
2022-11-05T09:23:24.790Z,1010.19
2022-11-05T09:24:24.757Z,1010.23
2022-11-05T09:25:24.749Z,1010.29
2022-11-05T09:26:24.743Z,1010.26
2022-11-05T09:27:24.735Z,1010.31
2022-11-05T09:28:24.759Z,1010.36
2022-11-05T09:29:24.718Z,1010.37
2022-11-05T09:30:24.692Z,1010.35
2022-11-05T09:31:24.681Z,1010.34
2022-11-05T09:32:24.684Z,1010.37
2022-11-05T09:33:24.687Z,1010.41
2022-11-05T09:34:24.651Z,1010.38
2022-11-05T09:35:24.651Z,1010.41
2022-11-05T09:36:24.634Z,1010.41
2022-11-05T09:37:24.625Z,1010.45
2022-11-05T09:38:24.628Z,1010.39
2022-11-05T09:39:24.603Z,1010.37
2022-11-05T09:40:24.583Z,1010.39
2022-11-05T09:41:24.589Z,1010.41
2022-11-05T09:42:24.575Z,1010.41
2022-11-05T09:43:31.292Z,1010.43
2022-11-05T09:44:25.560Z,1010.42
2022-11-05T09:45:24.561Z,1010.49
2022-11-05T09:46:24.542Z,1010.44
2022-11-05T09:47:24.501Z,1010.48
2022-11-05T09:48:24.497Z,1010.49
2022-11-05T09:49:24.486Z,1010.46
2022-11-05T09:50:24.484Z,1010.49
2022-11-05T09:51:24.517Z,1010.48
2022-11-05T09:52:24.464Z,1010.45
2022-11-05T09:53:24.458Z,1010.41
2022-11-05T09:54:24.435Z,1010.43
2022-11-05T09:55:24.432Z,1010.50
2022-11-05T09:56:24.412Z,1010.47
2022-11-05T09:57:24.409Z,1010.44
2022-11-05T09:58:28.525Z,1010.45
2022-11-05T09:59:24.384Z,1010.41
2022-11-05T10:00:24.388Z,1010.48
2022-11-05T10:01:24.514Z,1010.54
2022-11-05T10:02:33.148Z,1010.52
2022-11-05T10:03:24.411Z,1010.51
2022-11-05T10:04:24.341Z,1010.50
2022-11-05T10:05:24.341Z,1010.52
2022-11-05T10:06:24.310Z,1010.53
2022-11-05T10:07:24.343Z,1010.49
2022-11-05T10:08:24.279Z,1010.53
2022-11-05T10:09:24.272Z,1010.51
2022-11-05T10:10:24.265Z,1010.54
2022-11-05T10:11:24.265Z,1010.59
2022-11-05T10:12:24.227Z,1010.59
2022-11-05T10:13:24.234Z,1010.62
2022-11-05T10:14:24.211Z,1010.62
2022-11-05T10:15:24.200Z,1010.64
2022-11-05T10:16:24.242Z,1010.63
2022-11-05T10:17:24.185Z,1010.61
2022-11-05T10:18:24.166Z,1010.66
2022-11-05T10:19:24.150Z,1010.61
2022-11-05T10:20:24.142Z,1010.59
2022-11-05T10:21:44.191Z,1010.60
2022-11-05T10:22:25.114Z,1010.61
2022-11-05T10:23:24.114Z,1010.61
2022-11-05T10:24:24.104Z,1010.61
2022-11-05T10:25:24.087Z,1010.66
2022-11-05T10:26:24.077Z,1010.67
2022-11-05T10:27:24.079Z,1010.66
2022-11-05T10:28:24.052Z,1010.67
2022-11-05T10:29:24.045Z,1010.71
2022-11-05T10:30:24.028Z,1010.72
2022-11-05T10:31:24.048Z,1010.72
2022-11-05T10:32:24.037Z,1010.74
2022-11-05T10:33:24.011Z,1010.73
2022-11-05T10:34:24.031Z,1010.72
2022-11-05T10:35:23.979Z,1010.75
2022-11-05T10:36:23.963Z,1010.71
2022-11-05T10:37:23.966Z,1010.70
2022-11-05T10:38:23.941Z,1010.70
2022-11-05T10:39:23.955Z,1010.77
2022-11-05T10:40:23.956Z,1010.75
2022-11-05T10:41:23.905Z,1010.76
2022-11-05T10:42:23.899Z,1010.82
2022-11-05T10:43:23.893Z,1010.83
2022-11-05T10:44:23.878Z,1010.85
2022-11-05T10:45:23.885Z,1010.86
2022-11-05T10:46:23.878Z,1010.84
2022-11-05T10:47:23.839Z,1010.85
2022-11-05T10:48:23.850Z,1010.84
2022-11-05T10:49:23.826Z,1010.86
2022-11-05T10:50:23.822Z,1010.87
2022-11-05T10:51:23.828Z,1010.89
2022-11-05T10:52:23.788Z,1010.96
2022-11-05T10:53:23.830Z,1010.94
2022-11-05T10:54:23.768Z,1010.98
2022-11-05T10:55:23.768Z,1010.98
2022-11-05T10:56:23.739Z,1011.00
2022-11-05T10:57:23.748Z,1010.99
2022-11-05T10:58:23.719Z,1011.03
2022-11-05T10:59:23.706Z,1011.02
2022-11-05T11:00:23.701Z,1011.04
2022-11-05T11:01:23.852Z,1011.05
2022-11-05T11:02:23.728Z,1011.08
2022-11-05T11:03:23.677Z,1011.03
2022-11-05T11:04:23.678Z,1011.06
2022-11-05T11:05:23.643Z,1011.05
2022-11-05T11:06:23.658Z,1011.02
2022-11-05T11:07:23.630Z,1010.99
2022-11-05T11:08:23.624Z,1010.96
2022-11-05T11:09:23.626Z,1010.96
2022-11-05T11:10:23.592Z,1010.87
2022-11-05T11:11:23.583Z,1010.91
2022-11-05T11:12:23.577Z,1010.93
2022-11-05T11:13:23.600Z,1010.93
2022-11-05T11:14:23.544Z,1010.96
2022-11-05T11:15:23.542Z,1010.95
2022-11-05T11:16:23.522Z,1011.04
2022-11-05T11:17:23.521Z,1010.99
2022-11-05T11:18:23.500Z,1011.00
2022-11-05T11:19:23.508Z,1010.99
2022-11-05T11:20:23.523Z,1010.95
2022-11-05T11:21:23.475Z,1010.91
2022-11-05T11:22:23.461Z,1010.95
2022-11-05T11:23:23.468Z,1010.95
2022-11-05T11:24:23.451Z,1011.01
2022-11-05T11:25:23.444Z,1010.98
2022-11-05T11:26:23.411Z,1010.95
2022-11-05T11:27:23.406Z,1011.02
2022-11-05T11:28:23.393Z,1011.07
2022-11-05T11:29:23.405Z,1011.06
2022-11-05T11:30:23.364Z,1010.97
2022-11-05T11:31:23.363Z,1011.01
2022-11-05T11:32:23.358Z,1010.97
2022-11-05T11:33:23.360Z,1010.97
2022-11-05T11:34:23.344Z,1010.97
2022-11-05T11:35:23.355Z,1011.06
2022-11-05T11:36:23.535Z,1011.00
2022-11-05T11:37:23.294Z,1010.96
2022-11-05T11:38:23.270Z,1010.95
2022-11-05T11:39:23.265Z,1011.02
2022-11-05T11:40:23.259Z,1010.99
2022-11-05T11:41:23.265Z,1011.03
2022-11-05T11:42:23.249Z,1011.05
2022-11-05T11:43:23.255Z,1011.03
2022-11-05T11:44:23.218Z,1011.10
2022-11-05T11:45:23.203Z,1011.05
2022-11-05T11:46:23.190Z,1011.03
2022-11-05T11:47:23.188Z,1011.10
2022-11-05T11:48:23.162Z,1011.02
2022-11-05T11:49:23.161Z,1011.12
2022-11-05T11:50:23.156Z,1011.07
2022-11-05T11:51:23.136Z,1011.09
2022-11-05T11:52:23.149Z,1011.05
2022-11-05T11:53:23.127Z,1011.13
2022-11-05T11:54:25.962Z,1011.18
2022-11-05T11:55:24.111Z,1011.14
2022-11-05T11:56:23.090Z,1011.09
2022-11-05T11:57:23.063Z,1011.04
2022-11-05T11:58:23.099Z,1011.04
2022-11-05T11:59:35.359Z,1011.08
2022-11-05T12:00:24.063Z,1011.00
2022-11-05T12:01:23.090Z,1011.13
2022-11-05T12:02:23.164Z,1011.08
2022-11-05T12:03:23.107Z,1011.06
2022-11-05T12:04:22.988Z,1011.04
2022-11-05T12:05:22.980Z,1011.02